Terminal Aerodrome Forecast
Issued by NWS

Home | Current Version | Previous Version | Text Only | Print | Product List | Glossary On
Versions: 1 2 3 4 5 6 7 8 9 10 11 12
000
FTUS45 KRIW 100500
TAFWRL
TAF
KWRL 100538Z 1006/1106 VRB06KT P6SM VCSH SCT100 BKN200
     FM100800 VRB05KT P6SM SCT120 BKN200
     FM101800 02007KT P6SM VCSH BKN110
     FM110300 VRB05KT P6SM SCT110 BKN200=

USA.gov is the U.S. government's official web portal to all federal, state and local government web resources and services.